Aérodrome :
LOGIN :

S'inscrire | Disclaimer

   EN    FR    IT 

 










Légende :    VFR   VFR Marginal   IFR   IFR Intensif   IFR Très Intensif
Visi : 
Plafond : 
>= 8 km
>= 3000ft
5 à 8 km
1000 à 3000 ft
1500m à 5 km
500 à 1000 ft
800 à 1500m
200 à 500 ft
< 800m
< 200 ft
Symboles :   Orages  Brouillard  Fortes neiges  Fortes précipitations  Vent > 20 kt
SIGMETs :   Divers  Orages  Givrage  Turbulence  Onde Orograph.  Cendres Volcan.







- Altitude de l'aérodrome : 1966 ft
- Code IATA : SGE


EDGS - Siegerland

DERNIER METAR :
  • 251620Z 29015G25KT 250V320 9000 -SHRA SCT003 BKN007 02/02 Q1019

METARs EXPIRÉS :
  • 251550Z 30011KT 9999 VCSH FEW004 BKN007 02/02 Q1019
  • 251520Z 30012KT 7000 -SHSNRA SCT002 BKN005 02/02 Q1019
  • 251450Z 27011KT 9999 -SHRA SCT004 BKN006 03/03 Q1019
  • 251420Z 29013KT 270V330 9999 VCSH FEW005 SCT008CB BKN013 03/02 Q1019
  • 251350Z 31012KT 9999 VCSH SCT013CB BKN017 04/03 Q1019
  • 251320Z 33014KT 9999 FEW005 SCT010TCU 03/02 Q1019

TAF TAF EDGS
Valide du 25 à 15h jusqu'au 26 à 00h UTC


251400Z 2515/2524 29015G25KT 9999 SCT010 BKN020
TEMPO 2515/2519 32020G35KT 3000 SHRASN BKN002 BKN005CB
PROB30
TEMPO 2515/2518 1500 TSGS BKN001CB
BECMG 2519/2521 31010KT
Pas de NOTAMs connus pour ce terrain.



MET'MAP, la Météo Aéronautique d'un coup d'oeil ! - Copyright ORBIFLY Décembre 2007 - Disclaimer

ORBIFLY MET'MAP TEAM :

Programmation & Développement : Alexandra Zaïnal
Conception & Développement : Baudouin d'Aumeries
Co-Programmation & Développement : Marc-Olivier Méhu
Soutien technique & logistique : Manuel Goepfert

Contact : metmap@orbifly.com




SOURCES & CREDITS :

   NOAA